createdAt,value
2023-01-23T06:18:17.619Z,1026.86
2023-01-23T06:28:17.582Z,1026.96
2023-01-23T06:38:17.747Z,1026.99
2023-01-23T06:48:17.711Z,1027.14
2023-01-23T06:58:17.777Z,1027.37
2023-01-23T07:08:17.734Z,1027.43
2023-01-23T07:18:17.807Z,1027.64
2023-01-23T07:28:17.663Z,1027.75
2023-01-23T07:38:17.923Z,1027.94
2023-01-23T07:48:17.686Z,1028.03
2023-01-23T07:58:17.751Z,1027.86
2023-01-23T08:08:17.826Z,1028.00
2023-01-23T08:18:17.691Z,1028.06
2023-01-23T08:28:17.851Z,1028.05
2023-01-23T08:38:17.630Z,1028.08
2023-01-23T08:48:17.840Z,1028.20
2023-01-23T08:58:17.738Z,1028.13
2023-01-23T09:08:17.803Z,1028.19
2023-01-23T09:18:17.660Z,1028.35
2023-01-23T09:28:17.741Z,1028.40
2023-01-23T09:38:17.790Z,1028.53
2023-01-23T09:48:17.765Z,1028.67
2023-01-23T09:58:17.729Z,1028.67
2023-01-23T10:08:17.778Z,1028.81
2023-01-23T10:18:17.971Z,1028.82
2023-01-23T10:28:17.700Z,1028.72
2023-01-23T10:38:17.767Z,1028.71
2023-01-23T10:48:17.831Z,1028.85
2023-01-23T10:58:17.805Z,1028.82
2023-01-23T11:08:17.570Z,1028.67
2023-01-23T11:18:18.303Z,1028.64
2023-01-23T11:28:17.687Z,1028.66
2023-01-23T11:38:19.773Z,1028.49
2023-01-23T11:48:17.808Z,1028.53
2023-01-23T11:58:17.674Z,1028.60
2023-01-23T12:08:17.848Z,1028.63
2023-01-23T12:18:17.815Z,1028.47
2023-01-23T12:28:18.141Z,1028.46
2023-01-23T12:38:17.630Z,1028.48
2023-01-23T12:48:17.787Z,1028.58
2023-01-23T12:58:17.657Z,1028.49
2023-01-23T13:08:19.923Z,1028.73
2023-01-23T13:18:17.683Z,1028.60
2023-01-23T13:28:19.560Z,1028.65
2023-01-23T13:38:17.706Z,1028.82
2023-01-23T14:28:18.029Z,1029.37
2023-01-23T14:38:18.011Z,1029.28
2023-01-23T14:48:17.858Z,1029.41
2023-01-23T14:58:18.025Z,1029.46
2023-01-23T15:08:17.987Z,1029.43
2023-01-23T15:18:18.056Z,1029.31
2023-01-23T15:28:18.226Z,1029.31
2023-01-23T15:38:17.971Z,1029.32
2023-01-23T15:48:18.245Z,1029.38
2023-01-23T15:58:18.098Z,1029.36
2023-01-23T16:08:18.175Z,1029.39
2023-01-23T16:18:18.237Z,1029.36
2023-01-23T16:28:18.342Z,1029.28
2023-01-23T16:38:18.160Z,1029.28
2023-01-23T16:48:26.067Z,1029.33
2023-01-23T16:58:18.207Z,1029.42
2023-01-23T17:08:18.302Z,1029.40
2023-01-23T17:18:18.305Z,1029.55
2023-01-23T17:28:18.104Z,1029.56
2023-01-23T17:38:18.334Z,1029.61
2023-01-23T17:48:18.102Z,1029.76
2023-01-23T17:58:18.165Z,1029.68
2023-01-23T18:08:18.313Z,1029.72
2023-01-23T18:18:18.306Z,1029.75
2023-01-23T18:28:18.163Z,1029.80
2023-01-23T18:38:18.318Z,1029.69
2023-01-23T18:48:25.179Z,1029.75
2023-01-23T18:58:18.036Z,1029.78
2023-01-23T19:08:18.199Z,1029.74
2023-01-23T19:18:19.503Z,1029.88
